createdAt,value
2022-10-17T00:01:10.580Z,99994.00
2022-10-17T00:03:40.243Z,100002.00
2022-10-17T00:06:14.169Z,99997.00
2022-10-17T00:08:44.207Z,99993.60
2022-10-17T00:11:24.498Z,99991.60
2022-10-17T00:13:56.335Z,99992.00
2022-10-17T00:16:31.138Z,99982.80
2022-10-17T00:18:59.330Z,99993.20
2022-10-17T00:21:27.389Z,99998.20
2022-10-17T00:23:55.844Z,100000.80
2022-10-17T00:26:24.054Z,100000.00
2022-10-17T00:28:53.323Z,100002.20
2022-10-17T00:31:23.511Z,100008.60
2022-10-17T00:33:53.252Z,100019.20
2022-10-17T00:36:25.499Z,100033.20
2022-10-17T00:38:58.763Z,100028.20
2022-10-17T00:41:32.115Z,100022.20
2022-10-17T00:44:06.189Z,100025.60
2022-10-17T00:46:38.298Z,100032.80
2022-10-17T00:49:12.713Z,100032.80
2022-10-17T00:52:02.017Z,100025.40
2022-10-17T00:54:37.412Z,100020.80
2022-10-17T00:57:06.201Z,100022.40
2022-10-17T00:59:38.235Z,100029.00
2022-10-17T01:02:14.814Z,100033.40
2022-10-17T01:04:46.905Z,100043.00
2022-10-17T01:07:15.179Z,100054.40
2022-10-17T01:09:46.333Z,100066.00
2022-10-17T01:12:22.387Z,100060.40
2022-10-17T01:14:57.630Z,100060.60
2022-10-17T01:17:56.184Z,100061.00
2022-10-17T01:20:59.179Z,100072.20
2022-10-17T01:23:54.641Z,100070.00
2022-10-17T01:26:48.483Z,100062.80
2022-10-17T01:30:21.248Z,100066.80
2022-10-17T01:33:02.012Z,100064.80
2022-10-17T01:35:42.827Z,100066.20
2022-10-17T01:39:08.111Z,100068.00
2022-10-17T01:41:57.368Z,100081.00
2022-10-17T01:44:36.383Z,100085.00
2022-10-17T01:47:11.243Z,100093.00
2022-10-17T01:49:43.644Z,100101.20
2022-10-17T01:52:24.076Z,100101.40
2022-10-17T01:54:59.751Z,100102.00
2022-10-17T01:57:40.031Z,100100.40
2022-10-17T02:00:19.099Z,100095.40
2022-10-17T02:03:00.450Z,100100.60
2022-10-17T02:05:35.661Z,100106.40
2022-10-17T02:08:04.588Z,100111.80
2022-10-17T02:10:53.262Z,100108.60
2022-10-17T02:13:50.380Z,100110.20
2022-10-17T02:16:44.973Z,100110.00
2022-10-17T02:19:36.872Z,100113.60
2022-10-17T02:22:17.769Z,100129.40
2022-10-17T02:24:59.776Z,100129.40
2022-10-17T02:27:39.071Z,100134.60
2022-10-17T02:30:14.507Z,100138.80
2022-10-17T02:32:59.035Z,100135.20
2022-10-17T02:35:33.445Z,100140.20
2022-10-17T02:38:05.092Z,100148.40
2022-10-17T02:40:34.926Z,100144.80
2022-10-17T02:43:03.190Z,100155.40
2022-10-17T02:45:36.904Z,100165.20
2022-10-17T02:48:17.900Z,100163.20
2022-10-17T02:51:14.335Z,100154.60
2022-10-17T02:54:10.677Z,100146.60
2022-10-17T02:56:50.732Z,100150.00
2022-10-17T02:59:24.427Z,100144.20
2022-10-17T03:01:53.534Z,100140.60
2022-10-17T03:04:21.630Z,100126.20
2022-10-17T03:06:49.751Z,100124.00
2022-10-17T03:09:19.159Z,100128.60
2022-10-17T03:11:47.118Z,100119.40
2022-10-17T03:14:15.187Z,100116.80
2022-10-17T03:16:44.017Z,100119.40
2022-10-17T03:19:11.936Z,100123.40
2022-10-17T03:21:40.122Z,100117.20
2022-10-17T03:24:08.743Z,100110.80
2022-10-17T03:26:36.941Z,100110.20
2022-10-17T03:29:05.306Z,100112.00
2022-10-17T03:31:33.652Z,100111.80
2022-10-17T03:34:03.647Z,100112.60
2022-10-17T03:36:31.601Z,100114.80
2022-10-17T03:38:59.572Z,100119.20
2022-10-17T03:41:28.056Z,100118.00
2022-10-17T03:43:55.955Z,100121.40
2022-10-17T03:46:24.229Z,100121.80
2022-10-17T03:48:55.056Z,100126.20
2022-10-17T03:51:23.075Z,100125.80
2022-10-17T03:53:53.988Z,100133.00
2022-10-17T03:56:25.379Z,100137.40
2022-10-17T03:59:00.299Z,100135.00
2022-10-17T04:01:28.825Z,100138.60
2022-10-17T04:03:57.647Z,100134.80
2022-10-17T04:06:27.528Z,100144.80
2022-10-17T04:08:55.624Z,100157.80
2022-10-17T04:11:28.459Z,100163.00
2022-10-17T04:13:59.756Z,100161.00
2022-10-17T04:16:28.190Z,100155.40
2022-10-17T04:19:04.813Z,100150.80
2022-10-17T04:21:37.881Z,100159.20
2022-10-17T04:24:11.808Z,100163.20
2022-10-17T04:26:59.859Z,100166.00
2022-10-17T04:29:30.048Z,100176.80
2022-10-17T04:32:18.172Z,100181.80
2022-10-17T04:35:09.434Z,100187.00
2022-10-17T04:37:37.623Z,100185.60
2022-10-17T04:40:10.810Z,100190.60
2022-10-17T04:42:38.773Z,100196.40
2022-10-17T04:45:07.616Z,100193.20
2022-10-17T04:47:35.912Z,100189.60
2022-10-17T04:50:06.176Z,100188.40
2022-10-17T04:52:37.612Z,100183.80
2022-10-17T04:55:07.076Z,100197.80
2022-10-17T04:57:35.808Z,100202.20
2022-10-17T05:00:18.160Z,100210.40
2022-10-17T05:02:56.771Z,100217.20
2022-10-17T05:05:24.659Z,100228.00
2022-10-17T05:07:53.820Z,100223.20
2022-10-17T05:10:25.563Z,100235.80
2022-10-17T05:12:53.975Z,100239.00
2022-10-17T05:15:24.181Z,100255.00
2022-10-17T05:17:57.670Z,100249.40
2022-10-17T05:20:27.192Z,100248.20
2022-10-17T05:22:55.176Z,100251.40
2022-10-17T05:25:23.233Z,100244.00
2022-10-17T05:27:51.326Z,100247.80
2022-10-17T05:30:19.558Z,100247.60
2022-10-17T05:32:47.861Z,100251.40
2022-10-17T05:35:16.393Z,100245.20
2022-10-17T05:37:44.323Z,100250.40
2022-10-17T05:40:12.515Z,100251.80
2022-10-17T05:42:49.659Z,100259.80
2022-10-17T05:45:18.220Z,100276.40
2022-10-17T05:47:47.531Z,100278.00
2022-10-17T05:50:15.648Z,100281.80
2022-10-17T05:52:58.421Z,100289.40
2022-10-17T05:55:26.379Z,100288.40
2022-10-17T05:57:54.564Z,100300.00
2022-10-17T06:00:23.161Z,100303.20
2022-10-17T06:02:56.088Z,100303.00
2022-10-17T06:05:24.975Z,100301.60
2022-10-17T06:07:55.990Z,100314.80
2022-10-17T06:10:26.389Z,100332.00
2022-10-17T06:12:54.764Z,100321.00
2022-10-17T06:15:22.645Z,100327.80
2022-10-17T06:17:57.049Z,100331.80
2022-10-17T06:20:24.944Z,100326.80
2022-10-17T06:22:53.443Z,100333.20
2022-10-17T06:25:34.706Z,100335.20
2022-10-17T06:28:02.924Z,100342.80
2022-10-17T06:30:31.348Z,100350.60
2022-10-17T06:32:59.254Z,100355.20
2022-10-17T06:35:27.152Z,100363.20
2022-10-17T06:37:55.001Z,100371.60
2022-10-17T06:40:23.809Z,100383.80
2022-10-17T06:42:51.924Z,100392.00
2022-10-17T06:45:47.828Z,100389.80
2022-10-17T06:48:27.295Z,100411.00
2022-10-17T06:51:11.399Z,100417.60
2022-10-17T06:53:50.791Z,100409.80
2022-10-17T06:56:46.773Z,100431.20
2022-10-17T06:59:32.459Z,100431.00
2022-10-17T07:02:06.511Z,100433.40
2022-10-17T07:04:34.658Z,100445.60
2022-10-17T07:07:03.392Z,100442.00
2022-10-17T07:09:33.180Z,100451.60
2022-10-17T07:12:01.084Z,100461.80
2022-10-17T07:14:32.188Z,100454.20
2022-10-17T07:17:01.705Z,100461.20
2022-10-17T07:19:32.684Z,100468.40
2022-10-17T07:22:00.662Z,100472.80
2022-10-17T07:24:28.742Z,100479.60
2022-10-17T07:27:03.609Z,100484.60
2022-10-17T07:29:31.667Z,100489.00
2022-10-17T07:32:08.695Z,100489.00
2022-10-17T07:34:37.952Z,100496.20
2022-10-17T07:37:07.478Z,100509.80
2022-10-17T07:39:35.847Z,100519.60
2022-10-17T07:42:05.184Z,100528.20
2022-10-17T07:44:33.750Z,100542.20
2022-10-17T07:47:02.159Z,100544.20
2022-10-17T07:49:31.062Z,100556.80
2022-10-17T07:51:59.051Z,100555.80
2022-10-17T07:54:26.937Z,100562.80
2022-10-17T07:56:54.769Z,100563.60
2022-10-17T07:59:22.616Z,100564.40
2022-10-17T08:01:50.489Z,100571.00
2022-10-17T08:04:18.443Z,100566.20
2022-10-17T08:06:46.294Z,100571.80
2022-10-17T08:09:14.186Z,100566.60
2022-10-17T08:11:44.118Z,100563.60
2022-10-17T08:14:13.899Z,100571.40
2022-10-17T08:16:41.757Z,100567.40
2022-10-17T08:19:11.529Z,100579.40
2022-10-17T08:21:39.505Z,100589.00
2022-10-17T08:24:07.389Z,100591.80
2022-10-17T08:26:39.189Z,100598.60
2022-10-17T08:29:17.088Z,100603.80
2022-10-17T08:31:47.852Z,100611.20
2022-10-17T08:34:16.908Z,100620.40
2022-10-17T08:36:44.765Z,100627.60
2022-10-17T08:39:12.695Z,100622.40
2022-10-17T08:42:03.576Z,100630.40
2022-10-17T08:44:54.548Z,100626.20
2022-10-17T08:47:36.070Z,100634.20
2022-10-17T08:50:07.000Z,100641.00
2022-10-17T08:53:03.120Z,100648.80
2022-10-17T08:55:42.804Z,100650.80
2022-10-17T08:58:17.271Z,100660.60
2022-10-17T09:01:40.647Z,100667.60
2022-10-17T09:04:14.454Z,100673.20
2022-10-17T09:07:06.237Z,100677.60
2022-10-17T09:09:49.504Z,100687.60
2022-10-17T09:12:28.453Z,100694.60
2022-10-17T09:15:14.475Z,100695.00
2022-10-17T09:17:59.922Z,100701.20
2022-10-17T09:20:39.451Z,100701.80
2022-10-17T09:23:17.360Z,100706.20
2022-10-17T09:25:50.674Z,100714.20
2022-10-17T09:28:41.535Z,100712.60
2022-10-17T09:31:23.462Z,100731.60
2022-10-17T09:33:55.428Z,100726.60
2022-10-17T09:36:32.917Z,100731.80
2022-10-17T09:39:14.875Z,100731.00
2022-10-17T09:41:52.223Z,100735.60
2022-10-17T09:44:22.098Z,100739.00
2022-10-17T09:47:21.403Z,100743.20
2022-10-17T09:49:50.311Z,100747.60
2022-10-17T09:52:33.501Z,100744.00
2022-10-17T09:55:45.451Z,100742.00
2022-10-17T09:58:13.375Z,100752.20
2022-10-17T10:00:49.287Z,100755.60
2022-10-17T10:03:27.057Z,100757.60
2022-10-17T10:06:05.079Z,100767.80
2022-10-17T10:08:38.050Z,100771.00
2022-10-17T10:11:13.490Z,100780.80
2022-10-17T10:13:44.043Z,100782.60
2022-10-17T10:16:30.367Z,100789.80
2022-10-17T10:18:59.466Z,100800.40
2022-10-17T10:21:28.872Z,100798.80
2022-10-17T10:23:59.719Z,100807.20
2022-10-17T10:26:50.467Z,100813.80
2022-10-17T10:29:34.827Z,100815.20
2022-10-17T10:32:29.134Z,100829.60
2022-10-17T10:35:34.564Z,100833.60
2022-10-17T10:38:10.390Z,100841.20
2022-10-17T10:40:49.533Z,100849.00
2022-10-17T10:43:34.722Z,100860.80
2022-10-17T10:46:28.412Z,100863.00
2022-10-17T10:49:03.328Z,100856.00
2022-10-17T10:51:42.596Z,100851.80
2022-10-17T10:54:21.372Z,100850.60
2022-10-17T10:57:01.255Z,100852.00
2022-10-17T10:59:37.582Z,100851.40
2022-10-17T11:02:33.595Z,100858.40
2022-10-17T11:05:20.829Z,100856.00
2022-10-17T11:08:09.298Z,100872.20
2022-10-17T11:11:23.987Z,100880.40
2022-10-17T11:14:19.911Z,100885.20
2022-10-17T11:17:06.406Z,100891.00
2022-10-17T11:19:59.473Z,100900.40
2022-10-17T11:22:42.259Z,100909.20
2022-10-17T11:25:34.452Z,100909.00
2022-10-17T11:28:19.877Z,100914.60
2022-10-17T11:31:03.382Z,100917.00
2022-10-17T11:33:47.171Z,100917.40
2022-10-17T11:36:18.609Z,100915.20
2022-10-17T11:38:58.886Z,100917.00
2022-10-17T11:41:57.518Z,100918.00
2022-10-17T11:44:42.272Z,100920.80
2022-10-17T11:47:55.251Z,100920.60
2022-10-17T11:53:48.869Z,100930.00
2022-10-17T11:56:42.968Z,100929.80
2022-10-17T11:59:38.847Z,100933.60
2022-10-17T12:02:21.772Z,100947.80
2022-10-17T12:05:19.027Z,100948.80
2022-10-17T12:08:09.730Z,100948.40
2022-10-17T12:10:53.788Z,100948.40
2022-10-17T12:13:33.598Z,100939.40
2022-10-17T12:16:20.053Z,100938.40
2022-10-17T12:19:12.191Z,100938.20
2022-10-17T12:22:00.494Z,100940.60
2022-10-17T12:24:38.945Z,100938.40
2022-10-17T12:27:47.708Z,100943.40
2022-10-17T12:30:27.022Z,100947.80
2022-10-17T12:33:22.665Z,100947.60
2022-10-17T12:36:12.391Z,100953.40
2022-10-17T12:38:40.287Z,100955.40
2022-10-17T12:41:08.434Z,100950.40
2022-10-17T12:43:44.970Z,100944.80
2022-10-17T12:46:33.771Z,100947.80
2022-10-17T12:49:05.067Z,100949.20
2022-10-17T12:52:11.091Z,100954.60
2022-10-17T12:57:36.093Z,100949.60
2022-10-17T13:00:30.160Z,100953.00
2022-10-17T13:03:06.957Z,100952.40
2022-10-17T13:05:40.340Z,100954.40
2022-10-17T13:08:28.148Z,100960.20
2022-10-17T13:10:57.645Z,100967.80
2022-10-17T13:13:54.207Z,100975.00
2022-10-17T13:16:35.924Z,100973.20
2022-10-17T13:19:14.997Z,100972.60
2022-10-17T13:22:06.940Z,100983.40
2022-10-17T13:24:38.878Z,100990.60
2022-10-17T13:27:30.955Z,100992.40
2022-10-17T13:30:02.012Z,100993.00
2022-10-17T13:32:39.698Z,100990.60
2022-10-17T13:35:17.219Z,101002.40
2022-10-17T13:37:51.577Z,101010.80
2022-10-17T13:40:49.721Z,101002.60
2022-10-17T13:43:26.313Z,101009.80
2022-10-17T13:46:13.707Z,101002.80
2022-10-17T13:48:49.803Z,101015.80
2022-10-17T13:51:17.707Z,101020.40
2022-10-17T13:53:45.651Z,101018.40
2022-10-17T13:56:27.905Z,101016.80
2022-10-17T13:59:02.154Z,101015.60
2022-10-17T14:01:31.380Z,101015.20
2022-10-17T14:04:09.253Z,101009.40
2022-10-17T14:06:49.266Z,101010.20
2022-10-17T14:09:26.919Z,101010.20
2022-10-17T14:12:16.587Z,101015.40
2022-10-17T14:15:09.745Z,101012.80
2022-10-17T14:17:40.085Z,101018.40
2022-10-17T14:23:38.759Z,101020.20
2022-10-17T14:26:21.427Z,101015.60
2022-10-17T14:29:07.426Z,101023.20
2022-10-17T14:31:37.241Z,101030.80
2022-10-17T14:34:05.785Z,101034.40
2022-10-17T14:36:40.760Z,101039.00
2022-10-17T14:39:22.045Z,101036.40
2022-10-17T14:41:51.583Z,101034.60
2022-10-17T14:44:30.662Z,101042.20
2022-10-17T14:47:37.962Z,101048.40
2022-10-17T14:50:21.751Z,101052.20
2022-10-17T14:53:11.394Z,101057.20
2022-10-17T14:55:58.286Z,101063.40
2022-10-17T14:58:30.224Z,101066.80
2022-10-17T15:01:00.991Z,101065.80
2022-10-17T15:03:29.758Z,101070.60
2022-10-17T15:05:58.425Z,101069.00
2022-10-17T15:08:26.393Z,101070.80
2022-10-17T15:10:54.366Z,101078.40
2022-10-17T15:13:32.152Z,101082.00
2022-10-17T15:16:17.874Z,101086.20
2022-10-17T15:18:46.138Z,101088.80
2022-10-17T15:21:26.432Z,101093.80
2022-10-17T15:24:06.166Z,101103.60
2022-10-17T15:26:34.991Z,101108.40
2022-10-17T15:29:03.696Z,101115.40
2022-10-17T15:31:31.851Z,101126.80
2022-10-17T15:33:59.755Z,101127.40
2022-10-17T15:36:39.113Z,101132.40
2022-10-17T15:39:07.664Z,101137.40
2022-10-17T15:41:35.634Z,101139.80
2022-10-17T15:44:03.732Z,101138.20
2022-10-17T15:46:35.473Z,101139.00
2022-10-17T15:49:12.403Z,101136.00
2022-10-17T15:51:41.201Z,101131.40
2022-10-17T15:54:09.433Z,101137.00
2022-10-17T15:56:41.238Z,101143.40
2022-10-17T15:59:17.967Z,101150.20
2022-10-17T16:01:46.064Z,101152.20
2022-10-17T16:04:15.638Z,101157.20
2022-10-17T16:06:43.610Z,101159.80
2022-10-17T16:09:11.484Z,101161.40
2022-10-17T16:11:42.962Z,101164.60
2022-10-17T16:14:16.423Z,101164.60
2022-10-17T16:16:44.813Z,101164.60
2022-10-17T16:19:13.013Z,101167.00
2022-10-17T16:21:41.959Z,101179.20
2022-10-17T16:24:12.223Z,101186.60
2022-10-17T16:26:41.119Z,101186.80
2022-10-17T16:29:10.130Z,101184.60
2022-10-17T16:31:43.483Z,101182.40
2022-10-17T16:34:14.081Z,101184.80
2022-10-17T16:36:42.927Z,101187.00
2022-10-17T16:39:10.847Z,101194.60
2022-10-17T16:41:39.604Z,101195.40
2022-10-17T16:44:14.528Z,101201.20
2022-10-17T16:46:42.393Z,101204.20
2022-10-17T16:49:10.768Z,101208.20
2022-10-17T16:51:38.544Z,101208.60
2022-10-17T16:54:06.459Z,101213.40
2022-10-17T16:56:34.468Z,101215.60
2022-10-17T16:59:02.523Z,101213.80
2022-10-17T17:01:30.628Z,101213.20
2022-10-17T17:03:58.879Z,101211.00
2022-10-17T17:06:30.609Z,101205.80
2022-10-17T17:08:59.052Z,101211.00
2022-10-17T17:11:28.655Z,101219.20
2022-10-17T17:13:58.750Z,101220.80
2022-10-17T17:16:28.010Z,101229.60
2022-10-17T17:19:00.092Z,101229.40
2022-10-17T17:21:28.224Z,101238.80
2022-10-17T17:23:59.265Z,101243.60
2022-10-17T17:26:31.220Z,101241.60
2022-10-17T17:29:00.788Z,101240.20
2022-10-17T17:31:32.417Z,101234.80
2022-10-17T17:34:01.253Z,101241.60
2022-10-17T17:36:33.942Z,101249.00
2022-10-17T17:39:05.959Z,101251.20
2022-10-17T17:41:35.062Z,101258.80
2022-10-17T17:44:04.570Z,101263.80
2022-10-17T17:46:32.991Z,101273.00
2022-10-17T17:49:01.800Z,101272.60
2022-10-17T17:51:29.819Z,101282.40
2022-10-17T17:53:57.903Z,101283.00
2022-10-17T17:56:29.281Z,101291.40
2022-10-17T17:59:00.182Z,101285.20
2022-10-17T18:01:36.673Z,101285.00
2022-10-17T18:04:08.729Z,101293.40
2022-10-17T18:06:38.400Z,101286.80
2022-10-17T18:09:07.218Z,101290.80
2022-10-17T18:11:37.046Z,101305.20
2022-10-17T18:14:11.241Z,101313.20
2022-10-17T18:16:39.262Z,101313.60
2022-10-17T18:19:10.488Z,101312.80
2022-10-17T18:21:38.428Z,101321.80
2022-10-17T18:24:06.999Z,101325.80
2022-10-17T18:26:35.168Z,101332.00
2022-10-17T18:29:04.299Z,101325.40
2022-10-17T18:31:36.059Z,101331.60
2022-10-17T18:34:05.879Z,101348.40
2022-10-17T18:36:35.336Z,101352.60
2022-10-17T18:39:05.310Z,101362.20
2022-10-17T18:41:33.996Z,101362.00
2022-10-17T18:44:05.353Z,101358.40
2022-10-17T18:46:40.736Z,101358.60
2022-10-17T18:49:16.314Z,101355.00
2022-10-17T18:51:45.792Z,101362.60
2022-10-17T18:54:20.556Z,101371.80
2022-10-17T18:56:54.591Z,101381.60
2022-10-17T18:59:22.852Z,101386.20
2022-10-17T19:01:50.799Z,101393.00
2022-10-17T19:04:18.834Z,101394.60
2022-10-17T19:06:46.864Z,101396.80
2022-10-17T19:09:15.547Z,101399.60
2022-10-17T19:11:44.115Z,101397.40
2022-10-17T19:14:13.850Z,101400.40
2022-10-17T19:16:46.733Z,101405.00
2022-10-17T19:19:17.194Z,101406.40
2022-10-17T19:21:45.202Z,101406.60
2022-10-17T19:24:17.871Z,101409.20
2022-10-17T19:26:47.608Z,101416.40
2022-10-17T19:29:18.228Z,101412.40
2022-10-17T19:31:47.620Z,101418.60
2022-10-17T19:34:17.335Z,101422.40
2022-10-17T19:36:45.889Z,101417.20
2022-10-17T19:39:18.126Z,101419.00
2022-10-17T19:41:48.116Z,101416.80
2022-10-17T19:44:16.941Z,101422.00
2022-10-17T19:46:46.857Z,101420.20
2022-10-17T19:49:15.630Z,101423.80
2022-10-17T19:51:44.782Z,101425.00
2022-10-17T19:54:15.107Z,101428.80
2022-10-17T19:56:43.543Z,101430.00
2022-10-17T19:59:14.465Z,101436.80
2022-10-17T20:01:43.239Z,101437.80
2022-10-17T20:04:12.639Z,101445.40
2022-10-17T20:06:43.050Z,101446.60
2022-10-17T20:09:15.821Z,101445.60
2022-10-17T20:11:45.575Z,101448.80
2022-10-17T20:14:13.704Z,101455.60
2022-10-17T20:16:42.291Z,101457.00
2022-10-17T20:19:12.791Z,101461.60
2022-10-17T20:21:40.705Z,101462.60
2022-10-17T20:24:15.372Z,101466.40
2022-10-17T20:26:44.470Z,101471.60
2022-10-17T20:29:19.700Z,101462.00
2022-10-17T20:31:48.255Z,101469.40
2022-10-17T20:34:18.930Z,101477.60
2022-10-17T20:36:47.967Z,101483.00
2022-10-17T20:39:19.194Z,101490.60
2022-10-17T20:41:47.413Z,101494.80
2022-10-17T20:44:15.665Z,101496.80
2022-10-17T20:46:52.896Z,101496.20
2022-10-17T20:49:28.422Z,101495.80
2022-10-17T20:51:56.770Z,101498.40
2022-10-17T20:54:25.398Z,101497.40
2022-10-17T20:56:53.646Z,101500.60
2022-10-17T20:59:21.627Z,101498.00
2022-10-17T21:01:49.586Z,101494.80
2022-10-17T21:07:06.189Z,101504.40
2022-10-17T21:09:34.047Z,101506.00
2022-10-17T21:12:04.283Z,101513.20
2022-10-17T21:14:33.419Z,101516.60
2022-10-17T21:17:04.935Z,101514.20
2022-10-17T21:19:33.576Z,101518.20
2022-10-17T21:22:01.821Z,101524.40
2022-10-17T21:24:30.802Z,101527.80
2022-10-17T21:26:58.900Z,101529.00
2022-10-17T21:29:26.892Z,101529.60
2022-10-17T21:31:54.740Z,101535.40
2022-10-17T21:34:25.058Z,101539.20
2022-10-17T21:36:53.248Z,101541.40
2022-10-17T21:39:22.947Z,101545.20
2022-10-17T21:41:52.194Z,101549.80
2022-10-17T21:44:24.822Z,101553.80
2022-10-17T21:46:54.304Z,101557.40
2022-10-17T21:49:24.805Z,101560.40
2022-10-17T21:51:53.589Z,101559.40
2022-10-17T21:54:23.604Z,101554.40
2022-10-17T21:56:51.951Z,101560.20
2022-10-17T21:59:19.968Z,101563.80
2022-10-17T22:01:47.997Z,101561.40
2022-10-17T22:04:18.680Z,101563.80
2022-10-17T22:06:51.211Z,101564.60
2022-10-17T22:09:25.797Z,101566.80
2022-10-17T22:11:56.789Z,101571.00
2022-10-17T22:14:26.918Z,101567.80
2022-10-17T22:16:55.461Z,101577.00
2022-10-17T22:19:26.664Z,101578.60
2022-10-17T22:21:55.283Z,101584.20
2022-10-17T22:24:23.849Z,101582.00
2022-10-17T22:26:52.463Z,101585.00
2022-10-17T22:29:20.842Z,101584.80
2022-10-17T22:31:48.801Z,101584.40
2022-10-17T22:34:18.353Z,101576.20
2022-10-17T22:36:47.850Z,101575.00
2022-10-17T22:39:16.043Z,101571.40
2022-10-17T22:41:44.265Z,101570.00
2022-10-17T22:44:12.236Z,101568.00
2022-10-17T22:46:40.053Z,101569.80
2022-10-17T22:49:08.557Z,101566.60
2022-10-17T22:51:36.758Z,101565.00
2022-10-17T22:54:04.709Z,101567.20
2022-10-17T22:56:32.686Z,101570.00
2022-10-17T22:59:00.651Z,101572.60
2022-10-17T23:01:28.547Z,101564.60
2022-10-17T23:03:56.513Z,101572.00
2022-10-17T23:06:24.588Z,101581.40
2022-10-17T23:08:52.513Z,101588.00
2022-10-17T23:11:21.064Z,101590.20
2022-10-17T23:13:49.386Z,101589.80
2022-10-17T23:16:17.382Z,101584.60
2022-10-17T23:18:45.450Z,101588.40
2022-10-17T23:21:13.596Z,101590.40
2022-10-17T23:23:41.893Z,101599.20
2022-10-17T23:26:13.345Z,101600.80
2022-10-17T23:28:42.496Z,101600.00
2022-10-17T23:31:10.404Z,101605.40
2022-10-17T23:33:41.280Z,101613.00
2022-10-17T23:36:11.948Z,101618.60
2022-10-17T23:38:42.430Z,101616.40
2022-10-17T23:41:10.891Z,101618.80
2022-10-17T23:43:39.093Z,101619.00
2022-10-17T23:46:07.911Z,101621.40
2022-10-17T23:48:35.920Z,101623.00
2022-10-17T23:51:04.444Z,101628.20
2022-10-17T23:53:32.386Z,101626.20
2022-10-17T23:56:00.275Z,101628.40
2022-10-17T23:58:28.646Z,101636.00
